Time;durP1;ratioP1;P1;durP2;ratioP2;P2;SDS_P1;SDS_P2;PMS_P1;PMS_P2;Temp;Humidity;BMP_temperature;BMP_pressure;BME280_temperature;BME280_humidity;BME280_pressure;Samples;Min_cycle;Max_cycle;Signal;HPM_P1;HPM_P2
2021/06/29 00:00:37;;;;;;;;;;;;;;;21.44;68.44;98634.53;5106128;27;20393;-60
2021/06/29 00:03:30;;;;;;;;;;;;;;;21.42;68.07;98637.50;5191729;27;20900;-60
2021/06/29 00:06:33;;;;;;;;;;;;;;;21.39;68.31;98637.97;5130492;27;20913;-60
2021/06/29 00:09:38;;;;;;;;;;;;;;;21.37;68.00;98640.09;5131107;27;20440;-61
2021/06/29 00:12:32;;;;;;;;;;;;;;;21.34;68.24;98645.94;5191596;27;20394;-60
2021/06/29 00:15:08;;;;;;;3.22;1.75;;;;;;;21.24;67.75;98630.16;4483552;27;18729539;-60
2021/06/29 00:18:12;;;;;;;;;;;;;;;21.26;67.93;98633.47;5117571;27;20561;-61
2021/06/29 00:21:06;;;;;;;;;;;;;;;21.21;67.92;98634.13;5186469;27;20441;-60
2021/06/29 00:24:11;;;;;;;;;;;;;;;21.14;68.29;98629.81;5144763;27;20446;-57
2021/06/29 00:27:05;;;;;;;;;;;;;;;21.12;68.13;98623.75;5189935;27;20435;-59
2021/06/29 00:29:59;;;;;;;;;;;;;;;21.11;68.04;98622.09;5191723;27;20409;-58
2021/06/29 00:32:58;;;;;;;;;;;;;;;21.08;68.22;98626.91;5112641;27;20391;-61
2021/06/29 00:35:55;;;;;;;;;;;;;;;21.08;67.76;98616.03;5187818;27;20595;-61
2021/06/29 00:38:49;;;;;;;;;;;;;;;21.05;68.03;98624.66;5188997;27;20932;-60
2021/06/29 00:41:44;;;;;;;3.58;2.40;;;;;;;20.80;68.46;98602.84;5105205;27;20375;-59
2021/06/29 00:44:40;;;;;;;;;;;;;;;20.98;68.62;98639.34;5112613;27;20399;-60
2021/06/29 00:47:37;;;;;;;;;;;;;;;20.99;68.25;98639.16;5190966;27;20535;-60
2021/06/29 00:50:31;;;;;;;;;;;;;;;20.98;68.10;98642.91;5191344;27;20394;-60
2021/06/29 00:53:25;;;;;;;;;;;;;;;20.97;67.86;98630.34;5186303;27;20413;-58
2021/06/29 00:56:20;;;;;;;;;;;;;;;20.96;67.84;98628.69;5172819;27;20813;-58
2021/06/29 00:59:17;;;;;;;;;;;;;;;20.98;67.74;98632.03;5190739;27;20531;-60
2021/06/29 01:02:09;;;;;;;2.30;1.98;;;;;;;20.90;67.81;98629.56;5119825;27;20752;-59
2021/06/29 01:05:12;;;;;;;;;;;;;;;20.97;67.89;98629.53;5130903;27;20411;-60
2021/06/29 01:08:14;;;;;;;;;;;;;;;21.00;67.61;98635.38;5130808;27;20401;-60
2021/06/29 01:11:17;;;;;;;;;;;;;;;21.00;67.54;98638.09;5144012;27;20406;-56
2021/06/29 01:14:11;;;;;;;;;;;;;;;20.97;67.47;98641.22;5191529;27;20750;-58
2021/06/29 01:17:05;;;;;;;;;;;;;;;20.92;67.70;98639.19;5191653;27;20825;-60
2021/06/29 01:20:03;;;;;;;;;;;;;;;20.94;67.83;98633.50;5191789;27;20876;-59
2021/06/29 01:23:08;;;;;;;;;;;;;;;21.00;67.76;98637.25;5191335;27;20433;-60
2021/06/29 01:26:05;;;;;;;;;;;;;;;21.05;67.71;98638.25;5117772;27;20403;-61
2021/06/29 01:29:06;;;;;;;;;;;;;;;21.11;67.43;98639.25;5119638;27;20894;-57
2021/06/29 01:32:13;;;;;;;;;;;;;;;21.10;67.59;98644.91;5147230;27;20947;-59
2021/06/29 01:35:08;;;;;;;;;;;;;;;21.12;67.53;98642.78;5191084;27;20543;-55
2021/06/29 01:38:00;;;;;;;;;;;;;;;21.16;67.08;98646.75;5119955;27;20363;-58
2021/06/29 01:40:54;;;;;;;;;;;;;;;21.13;67.26;98639.03;5192074;27;20433;-61
2021/06/29 01:43:57;;;;;;;;;;;;;;;21.10;67.45;98634.03;5144467;27;20406;-60
2021/06/29 01:47:04;;;;;;;;;;;;;;;21.07;67.52;98647.03;5130764;27;20458;-60
2021/06/29 01:50:15;;;;;;;;;;;;;;;21.10;67.45;98634.03;5147487;27;20394;-59
2021/06/29 01:53:09;;;;;;;;;;;;;;;21.12;67.00;98642.78;5191420;27;20398;-60
2021/06/29 01:56:03;;;;;;;;;;;;;;;21.14;67.00;98643.41;5190553;27;20437;-62
2021/06/29 01:58:55;;;;;;;;;;;;;;;21.13;66.81;98644.47;5096129;28;20444;-61
2021/06/29 02:01:50;;;;;;;;;;;;;;;21.11;66.61;98641.13;5191469;27;20390;-60
2021/06/29 02:04:45;;;;;;;;;;;;;;;21.12;66.68;98631.91;5191136;27;20394;-60
2021/06/29 02:07:38;;;;;;;;;;;;;;;21.17;66.20;98643.81;5191492;27;20394;-60
2021/06/29 02:10:33;;;;;;;;;;;;;;;21.24;65.99;98638.31;5128537;27;20407;-61
2021/06/29 02:13:26;;;;;;;;;;;;;;;21.32;65.64;98635.28;5117442;27;20410;-60
2021/06/29 02:16:16;;;;;;;;;;;;;;;21.37;65.34;98640.91;5119612;27;20403;-60
2021/06/29 02:19:10;;;;;;;;;;;;;;;21.40;65.31;98641.50;5191414;27;20916;-58
2021/06/29 02:22:19;;;;;;;;;;;;;;;21.37;65.71;98640.91;5144161;27;21004;-59
2021/06/29 02:25:13;;;;;;;;;;;;;;;21.42;65.46;98642.09;5189119;27;20520;-61
2021/06/29 02:28:07;;;;;;;;;;;;;;;21.42;65.29;98637.50;5189088;27;20535;-61
2021/06/29 02:31:04;;;;;;;;;;;;;;;21.41;65.29;98645.88;5112622;27;20464;-60
2021/06/29 02:34:00;;;;;;;;;;;;;;;21.44;65.51;98646.28;5098726;27;20336;-61
2021/06/29 02:36:55;;;;;;;;;;;;;;;21.48;65.09;98655.66;5191054;27;20425;-61
2021/06/29 02:39:57;;;;;;;;;;;;;;;21.48;65.18;98652.13;5130931;27;20900;-63
2021/06/29 02:42:51;;;;;;;;;;;;;;;21.46;65.39;98659.66;5191162;27;20414;-61
2021/06/29 02:45:45;;;;;;;;;;;;;;;21.41;65.72;98657.63;5191256;27;20424;-61
2021/06/29 02:48:39;;;;;;;;;;;;;;;21.37;65.79;98656.41;5191703;27;20923;-60
2021/06/29 02:51:36;;;;;;;;;;;;;;;21.37;65.78;98654.50;5112233;27;20534;-61
2021/06/29 02:54:30;;;;;;;;;;;;;;;21.42;65.71;98655.72;5190947;27;20406;-60
2021/06/29 02:57:26;;;;;;;;;;;;;;;21.40;65.63;98650.53;5112681;27;20891;-59
2021/06/29 03:00:18;;;;;;;;;;;;;;;21.46;65.35;98654.22;5067564;28;20410;-60
2021/06/29 03:03:12;;;;;;;;;;;;;;;21.48;65.16;98652.13;5190992;27;20539;-58
2021/06/29 03:06:03;;;;;;;;;;;;;;;21.52;65.02;98656.06;5120289;27;20732;-59
2021/06/29 03:09:00;;;;;;;;;;;;;;;21.51;65.49;98657.13;5112425;27;20443;-60
2021/06/29 03:11:54;;;;;;;5.35;2.67;;;;;;;21.44;65.36;98653.59;5128338;27;20303;-59
2021/06/29 03:14:55;;;;;;;3.67;3.38;;;;;;;21.30;65.82;98650.19;5112595;27;20407;-61
2021/06/29 03:17:49;;;;;;;3.08;2.67;;;;;;;21.15;65.58;98626.88;4568889;27;15048709;-62
2021/06/29 03:20:42;;;;;;;;;;;;;;;21.40;65.56;98666.00;5191832;27;20414;-61
2021/06/29 03:23:36;;;;;;;;;;;;;;;21.42;65.71;98658.44;5117245;27;20435;-59
2021/06/29 03:26:35;;;;;;;3.15;2.78;;;;;;;21.24;66.01;98641.03;5143380;27;20412;-62
2021/06/29 03:29:24;;;;;;;;;;;;;;;21.44;65.80;98659.06;5119707;27;20399;-59
2021/06/29 03:32:24;;;;;;;;;;;;;;;21.50;65.42;98656.28;5144032;27;20410;-60
2021/06/29 03:35:18;;;;;;;;;;;;;;;21.57;65.06;98658.09;5192006;27;20413;-61
2021/06/29 03:38:27;;;;;;;;;;;;;;;21.65;64.74;98647.78;5191274;27;20450;-62
2021/06/29 03:41:17;;;;;;;;;;;;;;;21.77;64.08;98655.22;5119788;27;20408;-61
2021/06/29 03:44:12;;;;;;;;;;;;;;;21.84;63.79;98655.97;5191668;27;20935;-60
2021/06/29 03:47:06;;;;;;;;;;;;;;;21.84;63.89;98660.59;5191557;27;20905;-61
2021/06/29 03:50:01;;;;;;;;;;;;;;;21.83;63.92;98659.75;5191231;27;20393;-60
2021/06/29 03:52:58;;;;;;;;;;;;;;;21.77;64.18;98660.66;5098717;27;20722;-61
2021/06/29 03:55:48;;;;;;;;;;;;;;;21.82;64.34;98666.25;5120223;27;20407;-60
2021/06/29 03:58:43;;;;;;;;;;;;;;;21.97;63.83;98665.88;5191353;27;20532;-61
2021/06/29 04:01:49;;;;;;;;;;;;;;;22.13;63.29;98661.69;5065406;28;20428;-61
2021/06/29 04:04:42;;;;;;;;;;;;;;;22.31;63.03;98668.22;5117403;27;20459;-61
2021/06/29 04:07:35;;;;;;;;;;;;;;;22.61;61.86;98661.97;5191560;27;20875;-60
2021/06/29 04:10:41;;;;;;;;;;;;;;;22.94;61.04;98668.84;5147549;27;20454;-61
2021/06/29 04:13:35;;;;;;;;;;;;;;;23.59;59.63;98667.13;5191756;27;20398;-61
2021/06/29 04:16:29;;;;;;;;;;;;;;;24.52;56.86;98660.91;5191191;27;20426;-60
2021/06/29 04:19:40;;;;;;;;;;;;;;;25.02;55.47;98664.03;5071520;27;20785;-61
2021/06/29 04:22:34;;;;;;;;;;;;;;;25.08;55.02;98659.47;5191196;27;20414;-61
2021/06/29 04:25:28;;;;;;;;;;;;;;;24.85;55.20;98674.13;5128581;27;20404;-60
2021/06/29 04:28:03;;;;;;;2.72;2.10;;;;;;;24.28;55.83;98654.72;4489060;27;18578582;-61
2021/06/29 04:31:12;;;;;;;;;;;;;;;23.73;57.62;98670.47;5146985;27;20398;-60
2021/06/29 04:34:05;;;;;;;;;;;;;;;23.33;58.81;98669.28;5191484;27;20413;-60
2021/06/29 04:37:05;;;;;;;;;;;;;;;23.06;59.79;98672.41;5143999;27;20406;-61
2021/06/29 04:40:02;;;;;;;;;;;;;;;22.90;59.93;98670.34;5191259;27;20401;-61
2021/06/29 04:43:17;;;;;;;;;;;;;;;22.83;60.18;98666.91;5144315;27;20413;-61
2021/06/29 04:46:18;;;;;;;;;;;;;;;23.05;59.76;98668.03;5191612;27;20402;-62
2021/06/29 04:49:29;;;;;;;;;;;;;;;23.49;58.41;98670.47;5147360;27;20402;-61
2021/06/29 04:52:35;;;;;;;;;;;;;;;23.95;57.48;98672.56;5117704;27;20485;-61
2021/06/29 04:55:49;;;;;;;;;;;;;;;24.60;55.82;98667.09;5143940;27;20746;-60
2021/06/29 05:08:55;;;;;;;2.67;1.80;;;;;;;25.18;52.98;98661.56;5266994;22;20850658;-61
2021/06/29 05:22:14;;;;;;;2.72;1.50;;;;;;;24.32;54.66;98657.78;5087333;27;19925;-61
2021/06/29 05:25:11;;;;;;;;;;;;;;;23.83;56.71;98669.84;5191290;27;20845;-61
2021/06/29 05:28:07;;;;;;;;;;;;;;;23.42;58.22;98669.75;5190927;27;20402;-61
2021/06/29 05:31:01;;;;;;;;;;;;;;;23.33;58.66;98671.19;5120170;27;20399;-61
2021/06/29 05:33:52;;;;;;;;;;;;;;;23.31;58.71;98663.22;5119824;27;20407;-59
2021/06/29 05:36:58;;;;;;;;;;;;;;;23.35;58.75;98667.13;5119660;27;20759;-60
2021/06/29 05:40:01;;;;;;;;;;;;;;;23.52;58.57;98674.63;5118010;27;20434;-62
2021/06/29 05:42:36;;;;;;;;;;;;;;;23.87;57.50;98675.69;4235400;27;23987781;-61
2021/06/29 05:45:41;;;;;;;;;;;;;;;24.69;55.66;98672.97;5146966;27;21217;-61
2021/06/29 05:48:35;;;;;;;;;;;;;;;25.85;52.94;98669.97;5191034;27;20425;-60
2021/06/29 05:51:46;;;;;;;3.65;1.80;;;;;;;27.04;48.87;98654.88;5111693;27;20403;-62
2021/06/29 05:54:45;;;;;;;;;;;;;;;27.58;48.61;98664.09;5143391;27;20921;-60
2021/06/29 05:57:38;;;;;;;;;;;;;;;27.56;48.64;98658.91;5190983;27;20413;-59
2021/06/29 06:00:38;;;;;;;;;;;;;;;27.14;49.24;98660.47;5117031;27;20541;-61
2021/06/29 06:03:31;;;;;;;3.55;2.22;;;;;;;26.14;50.21;98654.19;5102933;27;20413;-61
2021/06/29 06:06:33;;;;;;;3.08;2.28;;;;;;;24.97;52.89;98628.34;5128045;27;20394;-61
2021/06/29 06:09:50;;;;;;;;;;;;;;;24.72;55.14;98665.13;5147709;27;20897;-62
2021/06/29 06:12:55;;;;;;;3.20;2.58;;;;;;;23.94;56.67;98649.03;5190643;27;20386;-61
2021/06/29 06:15:53;;;;;;;;;;;;;;;23.80;57.53;98668.47;5191679;27;20405;-61
2021/06/29 06:18:32;;;;;;;4.30;2.30;;;;;;;23.48;58.60;98668.00;4485844;27;18667537;-61
2021/06/29 06:21:31;;;;;;;3.83;2.65;;;;;;;22.84;60.20;98581.25;5112044;27;20477;-61
2021/06/29 06:24:33;;;;;;;;;;;;;;;23.68;59.05;98666.81;5117251;27;20414;-61
2021/06/29 06:27:32;;;;;;;4.45;2.30;;;;;;;24.06;57.80;98655.38;5128132;27;19931;-61
2021/06/29 06:40:53;;;;;;;;;;;;;;;29.07;46.45;98649.28;5137877;27;20920;-71
2021/06/29 06:43:47;;;;;;;4.38;2.08;;;;;;;28.74;45.60;98646.75;5190667;27;20524;-71
2021/06/29 06:46:23;;;;;;;4.35;2.45;;;;;;;26.57;49.11;98659.09;4567993;27;15050668;-67
2021/06/29 06:48:58;;;;;;;2.33;2.13;;;;;;;26.93;47.82;98637.50;4488675;27;18609815;-69
2021/06/29 06:51:58;;;;;;;2.47;1.95;;;;;;;26.41;48.47;98655.34;5065152;27;20639;-68
2021/06/29 06:54:55;;;;;;;2.28;1.75;;;;;;;25.33;49.84;98587.00;5116874;27;20400;-57
2021/06/29 06:57:50;;;;;;;2.38;1.70;;;;;;;25.41;50.00;98662.47;5190693;27;20904;-61
2021/06/29 07:00:58;;;;;;;1.42;1.33;;;;;;;25.42;50.48;98672.34;5108163;27;20431;-61
2021/06/29 07:03:52;;;;;;;2.53;1.90;;;;;;;25.67;49.88;98671.09;5174637;27;20427;-62
2021/06/29 07:06:59;;;;;;;4.32;2.05;;;;;;;25.71;48.96;98629.22;5180637;27;20408;-62
2021/06/29 07:09:52;;;;;;;6.35;1.80;;;;;;;25.93;49.06;98673.09;5180212;27;20405;-61
2021/06/29 07:12:55;;;;;;;3.60;1.70;;;;;;;25.73;49.44;98668.19;5133370;27;20387;-62
2021/06/29 07:15:52;;;;;;;3.00;1.73;;;;;;;25.80;49.25;98667.97;5118709;27;20376;-62
2021/06/29 07:18:49;;;;;;;1.90;1.80;;;;;;;26.23;48.49;98679.28;5190657;27;20458;-61
2021/06/29 07:21:30;;;;;;;3.63;1.70;;;;;;;27.40;46.17;98681.81;5128274;27;20412;-62
2021/06/29 07:24:07;;;;;;;;;;;;;;;28.75;43.92;98680.59;5066368;28;20140;-60
2021/06/29 07:37:14;;;;;;;4.40;1.83;;;;;;;29.23;41.77;98691.44;6226282;22;1312995;-63
2021/06/29 07:50:14;;;;;;;;;;;;;;;25.44;50.41;98714.84;5121570;27;20937;-61
2021/06/29 08:03:15;;;;;;;;;;;;;;;25.67;49.23;98712.22;5086821;27;20397;-63
2021/06/29 08:05:51;;;;;;;;;;;;;;;26.37;47.52;98709.91;5100497;27;20391;-62
2021/06/29 08:08:30;;;;;;;4.00;2.30;;;;;;;26.29;46.77;98650.00;5083057;27;1301516;-63
2021/06/29 08:11:09;;;;;;;;;;;;;;;27.10;46.04;98696.97;5075074;28;20435;-65
2021/06/29 08:13:59;;;;;;;4.20;2.30;;;;;;;27.23;45.61;98715.75;5083803;27;1279466;-63
2021/06/29 08:16:43;;;;;;;;;;;;;;;27.64;44.95;98707.88;5070142;28;20928;-62
2021/06/29 08:19:23;;;;;;;;;;;;;;;27.81;44.73;98706.88;5097055;27;20380;-61
2021/06/29 08:22:00;;;;;;;4.03;2.08;;;;;;;27.62;44.75;98706.50;5101594;27;20927;-62
2021/06/29 08:24:39;;;;;;;;;;;;;;;27.84;44.29;98716.50;5060171;28;20398;-62
2021/06/29 08:27:16;;;;;;;4.30;2.40;;;;;;;27.16;44.92;98691.28;5067178;28;20930;-62
2021/06/29 08:29:57;;;;;;;3.88;2.50;;;;;;;26.71;45.71;98714.41;5052793;27;1276166;-63
2021/06/29 08:32:43;;;;;;;3.28;1.90;;;;;;;26.12;46.98;98732.31;5083579;27;1281667;-61
2021/06/29 08:35:21;;;;;;;2.55;2.13;;;;;;;25.44;48.26;98722.22;5141789;27;20421;-61
2021/06/29 08:38:03;;;;;;;;;;;;;;;25.28;49.21;98729.38;5082191;28;20385;-64
2021/06/29 08:40:53;;;;;;;2.35;2.15;;;;;;;24.59;50.27;98709.19;5112499;27;20149;-67
2021/06/29 08:43:33;;;;;;;;;;;;;;;24.82;50.33;98729.34;5078451;28;20386;-64
2021/06/29 08:46:22;;;;;;;2.65;2.00;;;;;;;24.65;50.56;98725.47;5145484;27;20927;-64
2021/06/29 08:49:06;;;;;;;2.63;2.20;;;;;;;24.63;51.37;98756.91;5073143;28;20393;-62
2021/06/29 08:51:43;;;;;;;;;;;;;;;24.89;50.26;98735.53;5100048;27;20922;-63
2021/06/29 08:54:23;;;;;;;;;;;;;;;25.16;49.58;98743.13;5023902;28;20390;-64
2021/06/29 08:57:02;;;;;;;;;;;;;;;25.46;48.88;98731.03;5139678;27;20141;-62
2021/06/29 08:59:45;;;;;;;5.88;2.50;;;;;;;25.03;49.15;98675.81;5068758;28;20786;-63
2021/06/29 09:02:25;;;;;;;;;;;;;;;25.73;48.40;98739.44;5051474;28;20388;-64
2021/06/29 09:05:18;;;;;;;;;;;;;;;25.93;48.16;98744.41;5010594;28;20387;-62
2021/06/29 09:07:59;;;;;;;;;;;;;;;26.26;46.81;98752.00;5081208;28;20412;-62
2021/06/29 09:10:39;;;;;;;2.70;2.30;;;;;;;25.99;47.09;98749.94;5018883;28;20398;-63
2021/06/29 09:13:31;;;;;;;;;;;;;;;26.20;46.73;98746.44;5077547;28;20386;-64
2021/06/29 09:26:38;;;;;;;2.97;2.35;;;;;;;25.63;47.68;98750.22;5125409;27;20921;-63
2021/06/29 09:29:15;;;;;;;;;;;;;;;25.67;47.80;98750.56;5075451;28;20377;-63
2021/06/29 09:31:58;;;;;;;;;;;;;;;25.71;47.79;98749.84;5081726;28;20393;-61
2021/06/29 09:34:35;;;;;;;;;;;;;;;25.83;47.40;98752.47;5083819;28;20391;-63
2021/06/29 09:37:24;;;;;;;;;;;;;;;25.94;47.04;98761.69;5075258;28;20397;-63
2021/06/29 09:40:14;;;;;;;;;;;;;;;25.85;47.05;98764.03;5081359;28;20928;-62
2021/06/29 09:43:07;;;;;;;;;;;;;;;25.63;47.64;98762.03;5116860;27;20129;-65
2021/06/29 09:45:51;;;;;;;;;;;;;;;25.44;47.78;98769.66;5079949;28;20393;-61
2021/06/29 09:48:33;;;;;;;;;;;;;;;25.59;47.50;98769.09;5083799;28;20519;-68
2021/06/29 09:51:20;;;;;;;;;;;;;;;25.90;46.97;98771.47;5087248;27;20396;-64
2021/06/29 09:54:04;;;;;;;;;;;;;;;26.02;47.01;98774.13;5102187;27;20395;-62
2021/06/29 09:56:47;;;;;;;2.75;1.95;;;;;;;25.88;47.13;98768.16;5131421;27;20160;-63
2021/06/29 09:59:25;;;;;;;5.40;2.25;;;;;;;25.35;47.75;98714.44;5075748;27;20940;-65
2021/06/29 10:02:05;;;;;;;;;;;;;;;25.88;47.25;98766.25;5082154;28;20793;-63
2021/06/29 10:15:06;;;;;;;3.53;1.70;;;;;;;25.63;47.65;98775.75;5127076;27;20710;-65
2021/06/29 10:17:46;;;;;;;;;;;;;;;25.71;47.90;98776.41;5057518;28;20745;-61
2021/06/29 10:20:27;;;;;;;2.92;1.73;;;;;;;25.47;48.21;98768.34;5058728;27;20403;-62
2021/06/29 10:23:17;;;;;;;4.85;2.10;;;;;;;25.26;48.63;98781.66;5115561;27;20382;-64
2021/06/29 10:25:55;;;;;;;;;;;;;;;25.51;48.08;98780.47;5111698;27;20697;-62
2021/06/29 10:28:36;;;;;;;;;;;;;;;25.64;47.81;98771.06;5081769;28;20393;-66
2021/06/29 10:31:18;;;;;;;;;;;;;;;25.64;47.68;98769.19;5092769;27;20519;-65
2021/06/29 10:33:56;;;;;;;;;;;;;;;25.70;47.26;98766.53;5107393;27;20500;-65
2021/06/29 10:36:35;;;;;;;;;;;;;;;25.87;47.26;98772.84;5141930;27;20346;-63
2021/06/29 10:39:12;;;;;;;;;;;;;;;26.13;46.58;98775.94;5074187;28;20788;-62
2021/06/29 10:41:58;;;;;;;;;;;;;;;26.30;46.23;98766.88;5141584;27;20348;-63
2021/06/29 10:44:52;;;;;;;1.77;1.52;;;;;;;25.65;47.17;98767.25;5090966;27;20384;-63
2021/06/29 10:47:32;;;;;;;;;;;;;;;25.70;47.36;98767.38;5067457;28;20952;-62
2021/06/29 10:50:14;;;;;;;3.13;1.70;;;;;;;25.24;48.54;98778.31;5073955;27;1277541;-62
2021/06/29 10:52:57;;;;;;;;;;;;;;;25.55;48.08;98765.19;5093245;27;20380;-63
2021/06/29 10:55:34;;;;;;;;;;;;;;;25.94;47.19;98772.66;5087382;27;20817;-61
2021/06/29 10:58:32;;;;;;;;;;;;;;;26.24;46.56;98776.97;5059404;28;20935;-62
2021/06/29 11:01:27;;;;;;;;;;;;;;;26.25;46.06;98777.78;5066303;28;20398;-62
2021/06/29 11:04:04;;;;;;;;;;;;;;;26.22;46.56;98771.72;5062793;28;20406;-62
2021/06/29 11:06:44;;;;;;;;;;;;;;;26.30;46.17;98788.84;5117571;27;20391;-62
2021/06/29 11:09:44;;;;;;;;;;;;;;;26.56;46.18;98778.19;5075498;27;20430;-63
2021/06/29 11:12:27;;;;;;;2.45;1.50;;;;;;;26.67;45.57;98774.47;5090424;28;20396;-62
2021/06/29 11:15:06;;;;;;;;;;;;;;;27.04;45.19;98778.50;5067302;27;20403;-62
2021/06/29 11:17:48;;;;;;;;;;;;;;;27.27;44.50;98779.28;5100207;27;20376;-63
2021/06/29 11:20:37;;;;;;;;;;;;;;;27.15;44.77;98779.44;5103131;27;20390;-64
2021/06/29 11:23:23;;;;;;;1.35;1.25;;;;;;;26.33;46.02;98788.34;5116064;27;20379;-61
2021/06/29 11:26:12;;;;;;;;;;;;;;;26.27;46.25;98781.09;5128658;27;20382;-63
2021/06/29 11:29:09;;;;;;;1.58;1.40;;;;;;;25.68;47.35;98782.38;5072205;28;20389;-64
2021/06/29 11:31:47;;;;;;;2.15;1.33;;;;;;;25.38;48.57;98781.59;5079133;28;20948;-63
2021/06/29 11:34:27;;;;;;;;;;;;;;;25.59;48.24;98790.19;5057634;27;20404;-61
2021/06/29 11:37:19;;;;;;;3.65;1.60;;;;;;;25.67;47.35;98761.53;5096092;27;20411;-63
2021/06/29 11:39:57;;;;;;;3.08;1.73;;;;;;;26.05;46.68;98792.84;5149796;27;20386;-62
2021/06/29 11:42:38;;;;;;;3.30;1.58;;;;;;;26.15;46.10;98771.03;5078502;27;20392;-63
2021/06/29 11:45:30;;;;;;;;;;;;;;;26.49;46.20;98776.44;5116542;27;20391;-63
2021/06/29 11:48:42;;;;;;;4.35;1.70;;;;;;;26.18;46.02;98775.22;5066421;27;20405;-62
2021/06/29 11:51:38;;;;;;;;;;;;;;;26.07;46.51;98779.72;5075727;28;20385;-63
2021/06/29 11:54:44;;;;;;;5.65;1.73;;;;;;;25.06;48.96;98782.94;5071701;28;20910;-63
2021/06/29 11:57:43;;;;;;;4.00;1.90;;;;;;;24.06;50.57;98733.81;5058355;28;20396;-63
2021/06/29 12:00:19;;;;;;;;;;;;;;;24.35;50.72;98785.84;5088933;27;20389;-62
2021/06/29 12:03:06;;;;;;;;;;;;;;;24.49;50.54;98795.47;5088817;27;20396;-61
2021/06/29 12:05:46;;;;;;;;;;;;;;;24.80;49.44;98785.16;5140346;27;20647;-63
2021/06/29 12:08:25;;;;;;;4.28;1.70;;;;;;;24.82;49.77;98793.16;5065059;27;20389;-62
2021/06/29 12:11:03;;;;;;;;;;;;;;;25.11;48.92;98784.13;5027960;28;20404;-62
2021/06/29 12:13:43;;;;;;;;;;;;;;;25.31;48.50;98795.44;5080319;27;20743;-63
2021/06/29 12:16:26;;;;;;;6.40;2.30;;;;;;;25.16;48.15;98789.69;5039238;27;20409;-63
2021/06/29 12:19:06;;;;;;;1.63;1.52;;;;;;;25.05;48.21;98780.44;5071769;27;20710;-63
2021/06/29 12:21:47;;;;;;;;;;;;;;;25.13;48.41;98792.91;5061607;27;20380;-62
2021/06/29 12:24:24;;;;;;;;;;;;;;;25.39;47.92;98791.47;5044129;28;20772;-62
2021/06/29 12:27:30;;;;;;;;;;;;;;;25.76;46.89;98792.94;5101905;27;20396;-64
2021/06/29 12:30:20;;;;;;;2.15;1.17;;;;;;;25.73;46.62;98790.69;5069538;27;20386;-62
2021/06/29 12:32:58;;;;;;;;;;;;;;;25.91;46.44;98782.22;5070357;28;20928;-62
2021/06/29 12:35:37;;;;;;;;;;;;;;;25.98;45.93;98786.69;5060630;27;20395;-63
2021/06/29 12:38:15;;;;;;;;;;;;;;;25.81;46.50;98790.28;5060675;28;20415;-65
2021/06/29 12:40:57;;;;;;;;;;;;;;;25.63;46.74;98789.44;5133071;27;20402;-69
2021/06/29 12:43:40;;;;;;;;;;;;;;;25.46;46.82;98792.16;5095511;27;20392;-64
2021/06/29 12:46:29;;;;;;;;;;;;;;;25.25;47.34;98790.94;5083369;28;20796;-63
2021/06/29 12:49:07;;;;;;;;;;;;;;;24.98;47.88;98796.19;5107585;27;20389;-67
2021/06/29 12:51:46;;;;;;;;;;;;;;;24.65;48.50;98796.63;5140374;27;20853;-66
2021/06/29 12:54:28;;;;;;;;;;;;;;;24.27;49.37;98791.69;5124497;27;20545;-71
2021/06/29 12:57:09;;;;;;;1.05;1.05;;;;;;;23.90;51.09;98801.78;5073431;28;20543;-66
2021/06/29 12:59:46;;;;;;;;;;;;;;;24.04;51.03;98793.38;5003526;28;20875;-66
2021/06/29 13:02:27;;;;;;;;;;;;;;;24.42;50.14;98785.72;5145161;27;20405;-67
2021/06/29 13:05:08;;;;;;;1.98;1.30;;;;;;;24.59;49.29;98778.44;5080339;27;1295780;-65
2021/06/29 13:07:43;;;;;;;2.25;1.25;;;;;;;24.80;48.75;98787.09;5070633;27;1283547;-65
2021/06/29 13:10:28;;;;;;;;;;;;;;;25.10;48.37;98787.94;5080969;28;20387;-66
2021/06/29 13:13:19;;;;;;;;;;;;;;;25.22;48.30;98796.91;5074293;28;20393;-67
2021/06/29 13:15:55;;;;;;;;;;;;;;;25.24;47.90;98797.50;5101091;27;20384;-65
2021/06/29 13:18:35;;;;;;;2.30;1.23;;;;;;;24.76;49.33;98827.78;5083197;27;1289215;-66
2021/06/29 13:21:31;;;;;;;;;;;;;;;24.79;48.88;98805.41;5074480;28;20405;-66
2021/06/29 13:24:09;;;;;;;;;;;;;;;24.52;49.57;98807.84;5083014;28;20916;-68
2021/06/29 13:27:03;;;;;;;;;;;;;;;24.15;50.69;98806.22;5127841;27;20354;-62
2021/06/29 13:29:41;;;;;;;;;;;;;;;23.84;51.58;98808.19;5082250;27;20395;-66
2021/06/29 13:32:20;;;;;;;;;;;;;;;23.92;51.34;98805.09;5111975;27;20371;-65
2021/06/29 13:35:00;;;;;;;;;;;;;;;24.42;50.11;98802.97;5072508;28;20393;-67
2021/06/29 13:37:45;;;;;;;3.67;1.08;;;;;;;24.42;50.50;98789.31;5060273;27;1286224;-68
2021/06/29 13:40:33;;;;;;;;;;;;;;;24.77;49.33;98802.09;5083257;28;20793;-67
2021/06/29 13:43:21;;;;;;;2.90;1.00;;;;;;;24.44;50.57;98809.03;5075694;27;1282579;-65
2021/06/29 13:46:12;;;;;;;;;;;;;;;24.51;49.96;98807.00;5148471;27;20765;-65
2021/06/29 13:48:52;;;;;;;;;;;;;;;24.55;49.60;98807.34;5091773;27;20388;-70
2021/06/29 13:51:29;;;;;;;;;;;;;;;24.56;49.85;98808.16;5097616;27;20862;-67
2021/06/29 13:54:17;;;;;;;1.98;1.08;;;;;;;24.26;50.94;98820.97;5082294;27;1296362;-69
2021/06/29 13:57:19;;;;;;;;;;;;;;;24.22;51.05;98820.59;5094488;27;20818;-67
2021/06/29 13:59:56;;;;;;;;;;;;;;;24.46;50.62;98820.56;5080264;28;20385;-67
2021/06/29 14:02:57;;;;;;;;;;;;;;;24.70;49.60;98819.69;5131763;27;20485;-71
2021/06/29 14:05:42;;;;;;;;;;;;;;;24.78;48.97;98820.16;5138609;27;20388;-68
2021/06/29 14:08:20;;;;;;;;;;;;;;;24.75;48.91;98812.44;5083061;28;20381;-61
2021/06/29 14:10:59;;;;;;;;;;;;;;;24.73;49.07;98819.22;5116878;27;20707;-73
2021/06/29 14:13:40;;;;;;;;;;;;;;;24.68;49.07;98819.94;5077888;27;20784;-71
2021/06/29 14:16:19;;;;;;;;;;;;;;;24.60;49.15;98823.88;5144630;27;20357;-70
2021/06/29 14:18:55;;;;;;;;;;;;;;;24.51;49.23;98830.81;5092637;27;20391;-70
2021/06/29 14:21:33;;;;;;;;;;;;;;;24.39;49.49;98835.44;5077483;28;20382;-69
2021/06/29 14:24:13;;;;;;;;;;;;;;;24.29;49.60;98825.94;5123440;27;20127;-68
2021/06/29 14:26:50;;;;;;;;;;;;;;;24.23;49.71;98825.00;5071639;28;20223;-71
2021/06/29 14:29:27;;;;;;;;;;;;;;;24.15;49.98;98832.72;5128129;27;20135;-69
2021/06/29 14:32:06;;;;;;;;;;;;;;;24.04;50.05;98834.38;5082438;28;20385;-71
2021/06/29 14:34:44;;;;;;;;;;;;;;;23.90;50.61;98820.91;5111426;27;19991;-66
2021/06/29 14:37:22;;;;;;;;;;;;;;;23.63;51.58;98829.56;5107385;27;19920;-63
2021/06/29 14:39:58;;;;;;;;;;;;;;;23.50;51.91;98813.34;5069272;28;19974;-59
2021/06/29 14:42:36;;;;;;;;;;;;;;;23.39;52.34;98812.25;5083183;28;19932;-61
2021/06/29 14:45:16;;;;;;;;;;;;;;;23.33;52.71;98811.28;5075019;28;19920;-63
2021/06/29 14:47:54;;;;;;;;;;;;;;;23.07;52.67;98766.88;5112995;27;19949;-61
2021/06/29 14:50:31;;;;;;;;;;;;;;;23.43;52.63;98812.63;5078864;27;20349;-62
2021/06/29 14:53:08;;;;;;;;;;;;;;;23.51;52.68;98812.28;5101556;27;19924;-61
2021/06/29 14:55:47;;;;;;;;;;;;;;;23.60;52.54;98818.25;5086662;28;19921;-63
2021/06/29 14:58:24;;;;;;;;;;;;;;;23.69;52.32;98800.44;5087834;28;19920;-60
2021/06/29 15:01:01;;;;;;;;;;;;;;;23.69;52.21;98805.91;5119357;27;19950;-65
2021/06/29 15:03:40;;;;;;;;;;;;;;;23.77;52.27;98812.94;5124255;27;19973;-64
2021/06/29 15:06:17;;;;;;;;;;;;;;;23.79;52.09;98810.78;5113745;27;19919;-63
2021/06/29 15:09:09;;;;;;;;;;;;;;;23.73;52.18;98793.44;5121081;27;19928;-64
2021/06/29 15:11:48;;;;;;;;;;;;;;;23.71;52.33;98798.28;5119996;27;20022;-62
2021/06/29 15:14:26;;;;;;;;;;;;;;;23.69;52.58;98805.91;5113906;27;19920;-63
2021/06/29 15:17:05;;;;;;;;;;;;;;;23.71;52.64;98803.75;5083482;28;20888;-61
2021/06/29 15:19:43;;;;;;;;;;;;;;;23.74;52.61;98806.03;5102805;28;19973;-63
2021/06/29 15:22:21;;;;;;;;;;;;;;;23.65;52.47;98800.09;5049240;27;19925;-67
2021/06/29 15:24:59;;;;;;;;;;;;;;;23.54;52.61;98811.81;5119309;27;19924;-62
2021/06/29 15:27:36;;;;;;;;;;;;;;;23.53;52.60;98812.88;5124675;27;19965;-63
2021/06/29 15:30:14;;;;;;;;;;;;;;;23.49;52.77;98811.69;5086879;28;19970;-63
2021/06/29 15:33:07;;;;;;;;;;;;;;;23.44;52.87;98814.28;5083922;27;19939;-62
2021/06/29 15:35:43;;;;;;;;;;;;;;;23.36;52.98;98815.47;5109346;27;19949;-62
2021/06/29 15:38:35;;;;;;;;;;;;;;;23.27;53.12;98811.38;5112828;27;19984;-62